Time;durP1;ratioP1;P1;durP2;ratioP2;P2;SDS_P1;SDS_P2;PMS_P1;PMS_P2;Temp;Humidity;BMP_temperature;BMP_pressure;BME280_temperature;BME280_humidity;BME280_pressure;Samples;Min_cycle;Max_cycle;Signal;HPM_P1;HPM_P2
2023/09/11 00:00:00;;;;;;;18.93;15.93;;;;;;;;;;5059841;28;20236;-71
2023/09/11 00:02:29;;;;;;;16.67;12.70;;;;;;;;;;5076915;28;20202;-71
2023/09/11 00:04:56;;;;;;;21.83;13.20;;;;;;;;;;5059837;28;20498;-71
2023/09/11 00:07:24;;;;;;;15.97;14.27;;;;;;;;;;5059559;28;20289;-71
2023/09/11 00:09:51;;;;;;;17.20;14.13;;;;;;;;;;5051334;28;20201;-71
2023/09/11 00:12:18;;;;;;;17.50;14.27;;;;;;;;;;5057687;28;20187;-71
2023/09/11 00:18:38;;;;;;;20.07;16.00;;;;;;;;;;5056502;28;20581;-71
2023/09/11 00:21:24;;;;;;;21.00;14.43;;;;;;;;;;5056008;28;20158;-72
2023/09/11 00:27:51;;;;;;;19.50;15.53;;;;;;;;;;5056665;28;20192;-71
2023/09/11 00:30:18;;;;;;;19.20;15.43;;;;;;;;;;5055508;28;20195;-71
2023/09/11 00:33:02;;;;;;;17.10;14.23;;;;;;;;;;5057056;28;20191;-71
2023/09/11 00:35:29;;;;;;;20.13;14.77;;;;;;;;;;5022544;28;20191;-71
2023/09/11 00:37:56;;;;;;;23.37;17.13;;;;;;;;;;5038773;28;20194;-71
2023/09/11 00:40:23;;;;;;;18.67;14.87;;;;;;;;;;5038970;28;20183;-71
2023/09/11 00:42:50;;;;;;;23.40;17.97;;;;;;;;;;5038788;28;20318;-71
2023/09/11 00:45:17;;;;;;;17.40;14.47;;;;;;;;;;5056983;28;20236;-71
2023/09/11 00:47:44;;;;;;;17.00;14.43;;;;;;;;;;5056755;28;20183;-72
2023/09/11 00:50:11;;;;;;;19.37;15.57;;;;;;;;;;5038417;28;20201;-72
2023/09/11 00:52:38;;;;;;;19.40;16.20;;;;;;;;;;5022329;28;20185;-71
2023/09/11 00:55:05;;;;;;;21.57;16.67;;;;;;;;;;5038741;28;20218;-71
2023/09/11 00:57:32;;;;;;;20.90;16.13;;;;;;;;;;5037839;28;20183;-71
2023/09/11 00:59:58;;;;;;;19.77;16.10;;;;;;;;;;5056261;28;20225;-71
2023/09/11 01:02:25;;;;;;;23.20;16.87;;;;;;;;;;5038451;28;20195;-71
2023/09/11 01:04:52;;;;;;;22.33;17.33;;;;;;;;;;5055185;28;20270;-72
2023/09/11 01:07:19;;;;;;;26.63;20.27;;;;;;;;;;5039113;28;20241;-71
2023/09/11 01:09:45;;;;;;;24.93;18.47;;;;;;;;;;5056617;28;20191;-71
2023/09/11 01:48:07;;;;;;;18.97;14.13;;;;;;;;;;5055178;28;20238;-71
2023/09/11 01:50:35;;;;;;;19.70;14.17;;;;;;;;;;5054639;28;20198;-71
2023/09/11 01:53:19;;;;;;;17.67;13.83;;;;;;;;;;5037379;28;20173;-71
2023/09/11 01:55:46;;;;;;;17.57;13.67;;;;;;;;;;5054256;28;20178;-71
2023/09/11 01:58:13;;;;;;;19.07;14.50;;;;;;;;;;5037399;28;20190;-71
2023/09/11 02:00:39;;;;;;;18.27;15.20;;;;;;;;;;5037346;28;20183;-72
2023/09/11 02:03:06;;;;;;;19.20;15.70;;;;;;;;;;5037072;28;20310;-71
2023/09/11 02:05:50;;;;;;;17.83;13.27;;;;;;;;;;5054925;28;20242;-71
2023/09/11 02:08:17;;;;;;;17.40;13.37;;;;;;;;;;5055348;28;20266;-71
2023/09/11 02:14:37;;;;;;;19.27;15.17;;;;;;;;;;5054766;28;20240;-71
2023/09/11 02:17:21;;;;;;;20.73;15.90;;;;;;;;;;5054527;28;20209;-71
2023/09/11 02:19:48;;;;;;;17.70;15.00;;;;;;;;;;5037095;28;20191;-71
2023/09/11 02:22:16;;;;;;;22.57;16.47;;;;;;;;;;5054953;28;20553;-71
2023/09/11 02:24:43;;;;;;;16.40;14.03;;;;;;;;;;5037396;28;20299;-71
2023/09/11 02:27:09;;;;;;;17.57;14.93;;;;;;;;;;5037763;28;20205;-71
2023/09/11 02:29:54;;;;;;;15.90;13.00;;;;;;;;;;5054690;28;20155;-72
2023/09/11 02:32:21;;;;;;;16.70;13.40;;;;;;;;;;5036522;28;20281;-71
2023/09/11 02:34:48;;;;;;;18.30;14.40;;;;;;;;;;5036740;28;20195;-72
2023/09/11 02:37:15;;;;;;;16.87;13.20;;;;;;;;;;5054620;28;20645;-71
2023/09/11 02:39:41;;;;;;;17.67;15.15;;;;;;;;;;5052340;28;20477;-72
2023/09/11 02:42:08;;;;;;;16.33;13.53;;;;;;;;;;5053201;28;20186;-71
2023/09/11 02:48:36;;;;;;;18.63;13.30;;;;;;;;;;5054303;28;20197;-72
2023/09/11 02:51:03;;;;;;;14.83;12.43;;;;;;;;;;5054341;28;20266;-72
2023/09/11 02:53:30;;;;;;;16.93;12.40;;;;;;;;;;5036481;28;20194;-72
2023/09/11 02:55:56;;;;;;;15.07;12.93;;;;;;;;;;5036903;28;20187;-72
2023/09/11 02:58:23;;;;;;;19.50;14.40;;;;;;;;;;5036199;28;20193;-72
2023/09/11 03:04:43;;;;;;;15.90;13.50;;;;;;;;;;5053775;28;20545;-72
2023/09/11 03:11:09;;;;;;;22.70;15.00;;;;;;;;;;5053996;28;20145;-72
2023/09/11 03:13:38;;;;;;;19.40;13.70;;;;;;;;;;5035722;28;20202;-72
2023/09/11 03:16:08;;;;;;;16.17;13.27;;;;;;;;;;5037217;28;20240;-71
2023/09/11 03:18:35;;;;;;;14.63;11.83;;;;;;;;;;5035740;28;20186;-72
2023/09/11 03:21:03;;;;;;;14.50;13.00;;;;;;;;;;5052974;28;20179;-72
2023/09/11 03:23:30;;;;;;;18.27;13.23;;;;;;;;;;5019352;28;20213;-72
2023/09/11 03:25:57;;;;;;;16.20;12.90;;;;;;;;;;5036600;28;20269;-72
2023/09/11 03:28:27;;;;;;;19.83;14.07;;;;;;;;;;5045498;28;20214;-72
2023/09/11 03:30:54;;;;;;;19.40;13.33;;;;;;;;;;5036573;28;20175;-72
2023/09/11 03:33:21;;;;;;;17.40;13.67;;;;;;;;;;5035747;28;20234;-73
2023/09/11 03:35:48;;;;;;;18.53;12.87;;;;;;;;;;5035895;28;20179;-72
2023/09/11 03:38:15;;;;;;;15.77;12.73;;;;;;;;;;5035776;28;20198;-71
2023/09/11 03:40:43;;;;;;;14.53;12.67;;;;;;;;;;5035732;28;20264;-72
2023/09/11 03:43:10;;;;;;;17.37;13.80;;;;;;;;;;5035538;28;20217;-75
2023/09/11 03:49:38;;;;;;;14.73;12.37;;;;;;;;;;5053559;28;20176;-72
2023/09/11 03:52:05;;;;;;;15.60;12.47;;;;;;;;;;5036045;28;20198;-74
2023/09/11 03:54:32;;;;;;;15.00;11.97;;;;;;;;;;5036284;28;20193;-74
2023/09/11 04:00:59;;;;;;;17.60;12.10;;;;;;;;;;5053658;28;20629;-74
2023/09/11 04:03:27;;;;;;;24.97;12.10;;;;;;;;;;5035879;28;20210;-74
2023/09/11 04:05:54;;;;;;;23.27;12.40;;;;;;;;;;5053689;28;20228;-72
2023/09/11 04:08:21;;;;;;;17.30;12.03;;;;;;;;;;5052662;28;20206;-75
2023/09/11 04:10:48;;;;;;;20.53;11.83;;;;;;;;;;5053390;28;20191;-74
2023/09/11 04:17:15;;;;;;;21.73;11.97;;;;;;;;;;5053604;28;20153;-71
2023/09/11 04:19:43;;;;;;;26.57;11.87;;;;;;;;;;5020116;28;20202;-72
2023/09/11 04:25:25;;;;;;;31.07;13.40;;;;;;;;;;5037632;28;20198;-71
2023/09/11 04:27:53;;;;;;;28.07;12.50;;;;;;;;;;5055863;28;20212;-71
2023/09/11 04:30:20;;;;;;;26.23;13.30;;;;;;;;;;5075619;28;20247;-71
2023/09/11 04:32:48;;;;;;;33.43;14.00;;;;;;;;;;5059414;28;20222;-71
2023/09/11 04:35:16;;;;;;;30.50;16.27;;;;;;;;;;5059152;28;20198;-71
2023/09/11 04:37:43;;;;;;;32.23;13.63;;;;;;;;;;5059019;28;20200;-71
2023/09/11 04:40:11;;;;;;;206.63;28.20;;;;;;;;;;5059282;28;20250;-71
2023/09/11 04:42:38;;;;;;;43.93;15.50;;;;;;;;;;5059296;28;20676;-71
2023/09/11 04:45:06;;;;;;;107.23;20.73;;;;;;;;;;5058684;28;20747;-71
2023/09/11 04:47:34;;;;;;;53.07;15.63;;;;;;;;;;5058522;28;20190;-71
2023/09/11 04:54:02;;;;;;;59.53;17.00;;;;;;;;;;5076872;28;20264;-71
2023/09/11 04:56:32;;;;;;;60.20;17.53;;;;;;;;;;5058609;28;20218;-71
2023/09/11 04:59:01;;;;;;;75.93;18.80;;;;;;;;;;5058367;28;20201;-71
2023/09/11 05:05:28;;;;;;;53.10;16.00;;;;;;;;;;5056047;28;20232;-70
2023/09/11 05:11:56;;;;;;;41.97;14.67;;;;;;;;;;5057238;28;20146;-72
2023/09/11 05:18:27;;;;;;;44.97;14.87;;;;;;;;;;5056786;28;20517;-72
2023/09/11 05:20:55;;;;;;;37.53;15.83;;;;;;;;;;5038583;28;20197;-72
2023/09/11 05:23:24;;;;;;;42.17;15.77;;;;;;;;;;5023171;28;20183;-70
2023/09/11 05:29:57;;;;;;;38.50;16.00;;;;;;;;;;5072839;28;20157;-70
2023/09/11 05:32:28;;;;;;;25.57;15.13;;;;;;;;;;5059530;28;20190;-70
2023/09/11 05:38:54;;;;;;;25.97;14.97;;;;;;;;;;5076814;28;20157;-70
2023/09/11 05:41:25;;;;;;;26.67;14.63;;;;;;;;;;5052971;28;20175;-69
2023/09/11 05:43:53;;;;;;;26.63;14.37;;;;;;;;;;5042233;28;20202;-70
2023/09/11 05:46:20;;;;;;;30.70;14.23;;;;;;;;;;5057680;28;20186;-70
2023/09/11 05:52:57;;;;;;;29.93;15.10;;;;;;;;;;5075438;28;20671;-71
2023/09/11 05:59:26;;;;;;;27.73;15.93;;;;;;;;;;5075428;28;20259;-72
2023/09/11 06:01:53;;;;;;;25.87;16.87;;;;;;;;;;5057751;28;20235;-70
2023/09/11 06:04:22;;;;;;;31.07;17.33;;;;;;;;;;5067488;28;20205;-71
2023/09/11 06:06:49;;;;;;;24.80;16.57;;;;;;;;;;5057728;28;20217;-72
2023/09/11 06:09:16;;;;;;;26.27;15.97;;;;;;;;;;5040875;28;20272;-68
2023/09/11 06:11:44;;;;;;;28.73;16.30;;;;;;;;;;5057464;28;20549;-68
2023/09/11 06:14:11;;;;;;;29.50;15.90;;;;;;;;;;5056978;28;20220;-71
2023/09/11 06:20:31;;;;;;;26.63;16.03;;;;;;;;;;5074863;28;20153;-71
2023/09/11 06:27:03;;;;;;;33.43;16.87;;;;;;;;;;5074841;28;20188;-71
2023/09/11 06:33:30;;;;;;;34.67;17.83;;;;;;;;;;5054954;28;20165;-71
2023/09/11 06:36:14;;;;;;;30.33;16.87;;;;;;;;;;5054735;28;20175;-71
2023/09/11 06:38:41;;;;;;;24.67;16.50;;;;;;;;;;5037146;28;20546;-70
2023/09/11 06:45:18;;;;;;;31.50;17.10;;;;;;;;;;5060977;28;20745;-77
2023/09/11 06:47:46;;;;;;;32.30;16.53;;;;;;;;;;5058039;28;20213;-76
2023/09/11 06:50:14;;;;;;;24.63;16.73;;;;;;;;;;5075975;28;20178;-75
2023/09/11 06:52:42;;;;;;;27.87;16.90;;;;;;;;;;5073278;28;20205;-73
2023/09/11 06:59:02;;;;;;;23.93;14.80;;;;;;;;;;5074505;28;20160;-72
2023/09/11 07:05:29;;;;;;;22.10;13.70;;;;;;;;;;5072696;28;20255;-73
2023/09/11 07:07:58;;;;;;;27.17;12.80;;;;;;;;;;5040171;28;20644;-73
2023/09/11 07:14:24;;;;;;;24.33;11.37;;;;;;;;;;5074057;28;20196;-72
2023/09/11 07:16:51;;;;;;;34.63;12.57;;;;;;;;;;5056049;28;20174;-72
2023/09/11 07:23:13;;;;;;;32.13;12.33;;;;;;;;;;5073924;28;20169;-72
2023/09/11 07:29:37;;;;;;;40.33;13.00;;;;;;;;;;5074013;28;20189;-72
2023/09/11 07:40:09;;;;;;;27.30;11.47;;;;;;;;;;5073780;28;20497;-70
2023/09/11 07:42:37;;;;;;;21.80;10.43;;;;;;;;;;5056213;28;20181;-71
2023/09/11 07:49:21;;;;;;;19.07;10.03;;;;;;;;;;5053609;28;20213;-71
2023/09/11 07:51:48;;;;;;;14.67;9.03;;;;;;;;;;5053401;28;20182;-71
2023/09/11 07:54:16;;;;;;;18.80;9.57;;;;;;;;;;5053615;28;20179;-72
2023/09/11 07:56:43;;;;;;;15.80;9.73;;;;;;;;;;5071305;28;20261;-72
2023/09/11 08:03:05;;;;;;;15.97;10.67;;;;;;;;;;5073625;28;20150;-71
2023/09/11 08:05:33;;;;;;;16.17;9.57;;;;;;;;;;5057365;28;20226;-72
2023/09/11 08:12:00;;;;;;;11.20;9.90;;;;;;;;;;5077240;28;20215;-71
2023/09/11 08:14:27;;;;;;;20.20;10.70;;;;;;;;;;5060017;28;20206;-72
2023/09/11 08:16:55;;;;;;;16.00;9.00;;;;;;;;;;5042949;28;20197;-71
2023/09/11 08:19:22;;;;;;;13.47;9.20;;;;;;;;;;5060630;28;20197;-72
2023/09/11 08:21:51;;;;;;;14.93;8.97;;;;;;;;;;5059972;28;20774;-73
2023/09/11 08:28:12;;;;;;;13.67;10.00;;;;;;;;;;5077069;28;20149;-72
2023/09/11 08:30:42;;;;;;;14.83;9.50;;;;;;;;;;5060180;28;20223;-71
2023/09/11 08:37:17;;;;;;;16.50;9.30;;;;;;;;;;5077125;28;20200;-71
2023/09/11 08:39:51;;;;;;;12.10;9.67;;;;;;;;;;5076960;28;20248;-71
2023/09/11 08:46:17;;;;;;;12.47;9.07;;;;;;;;;;5076761;28;20208;-71
2023/09/11 08:52:46;;;;;;;14.07;8.90;;;;;;;;;;5074430;28;20258;-70
2023/09/11 08:55:15;;;;;;;13.07;8.47;;;;;;;;;;5058476;28;20257;-69
2023/09/11 09:01:42;;;;;;;12.47;7.73;;;;;;;;;;5076240;28;20153;-71
2023/09/11 09:04:11;;;;;;;14.73;8.80;;;;;;;;;;5042567;28;20228;-71
2023/09/11 09:10:32;;;;;;;12.67;7.60;;;;;;;;;;5076250;28;20199;-71
2023/09/11 09:16:53;;;;;;;11.47;7.57;;;;;;;;;;5075870;28;20196;-71
2023/09/11 09:23:31;;;;;;;10.27;7.03;;;;;;;;;;5075829;28;20208;-71
2023/09/11 09:26:05;;;;;;;8.00;7.20;;;;;;;;;;5058799;28;20271;-71
2023/09/11 09:32:25;;;;;;;7.37;6.20;;;;;;;;;;5075619;28;20209;-71
2023/09/11 09:34:53;;;;;;;9.60;7.03;;;;;;;;;;5076615;28;20576;-71
2023/09/11 09:41:13;;;;;;;8.60;6.87;;;;;;;;;;5075441;28;20147;-71
2023/09/11 09:43:40;;;;;;;8.10;6.97;;;;;;;;;;5052748;28;20195;-72
2023/09/11 09:46:17;;;;;;;8.77;6.90;;;;;;;;;;5005429;28;20199;-72
2023/09/11 09:52:38;;;;;;;7.13;6.33;;;;;;;;;;5055407;28;20157;-71
2023/09/11 09:55:08;;;;;;;9.83;7.00;;;;;;;;;;5021664;28;20190;-71
2023/09/11 10:01:45;;;;;;;7.67;6.97;;;;;;;;;;5055275;28;20142;-72
2023/09/11 10:04:16;;;;;;;7.53;6.77;;;;;;;;;;5037584;28;20205;-71
2023/09/11 10:10:43;;;;;;;7.77;6.90;;;;;;;;;;5055069;28;20260;-72
2023/09/11 10:17:21;;;;;;;8.20;6.70;;;;;;;;;;5064069;28;20173;-70
2023/09/11 10:19:49;;;;;;;11.07;8.17;;;;;;;;;;5073479;28;20182;-71
2023/09/11 10:22:16;;;;;;;11.23;6.97;;;;;;;;;;5057217;28;20273;-71
2023/09/11 10:24:43;;;;;;;9.43;7.20;;;;;;;;;;5075076;28;20584;-72
2023/09/11 10:27:10;;;;;;;8.30;7.30;;;;;;;;;;5039886;28;20196;-71
2023/09/11 10:29:51;;;;;;;8.17;7.33;;;;;;;;;;5073926;28;20567;-71
2023/09/11 10:36:20;;;;;;;8.67;7.37;;;;;;;;;;5054470;28;20173;-71
2023/09/11 10:38:48;;;;;;;7.00;6.23;;;;;;;;;;5020675;28;20245;-72
2023/09/11 10:41:15;;;;;;;8.97;7.23;;;;;;;;;;5054080;28;20235;-72
2023/09/11 10:43:45;;;;;;;7.27;6.47;;;;;;;;;;5036443;28;20202;-71
2023/09/11 10:46:21;;;;;;;8.03;7.17;;;;;;;;;;5041603;28;20206;-71
2023/09/11 10:48:51;;;;;;;9.13;6.60;;;;;;;;;;5036797;28;20190;-71
2023/09/11 10:51:19;;;;;;;13.03;6.83;;;;;;;;;;5053013;28;20190;-71
2023/09/11 10:57:45;;;;;;;8.70;6.77;;;;;;;;;;5054349;28;20212;-72
2023/09/11 11:00:13;;;;;;;9.93;7.13;;;;;;;;;;5054003;28;20192;-71
2023/09/11 11:02:41;;;;;;;8.77;7.00;;;;;;;;;;5020154;28;20201;-72
2023/09/11 11:13:04;;;;;;;9.20;6.50;;;;;;;;;;5075691;28;20148;-76
2023/09/11 11:15:35;;;;;;;10.30;6.97;;;;;;;;;;5025869;28;20308;-76
2023/09/11 11:22:07;;;;;;;7.33;5.90;;;;;;;;;;5074114;28;20145;-71
2023/09/11 11:24:34;;;;;;;7.03;6.37;;;;;;;;;;5056488;28;20212;-74
2023/09/11 11:30:55;;;;;;;11.43;7.30;;;;;;;;;;5074110;28;20196;-70
2023/09/11 11:33:40;;;;;;;12.13;6.60;;;;;;;;;;5058558;28;20162;-71
2023/09/11 11:36:08;;;;;;;8.67;6.23;;;;;;;;;;5073382;28;20656;-71
2023/09/11 11:38:37;;;;;;;11.87;6.93;;;;;;;;;;5040522;28;20190;-71
2023/09/11 11:45:04;;;;;;;9.00;7.27;;;;;;;;;;5077765;28;20270;-71
2023/09/11 11:47:36;;;;;;;9.67;8.70;;;;;;;;;;5043395;28;20709;-70
2023/09/11 11:54:05;;;;;;;9.50;8.70;;;;;;;;;;5078066;28;20204;-72
2023/09/11 12:00:35;;;;;;;9.13;8.07;;;;;;;;;;5077684;28;20680;-76
2023/09/11 12:03:19;;;;;;;8.97;8.07;;;;;;;;;;5062747;28;20146;-72
2023/09/11 12:05:47;;;;;;;10.33;8.40;;;;;;;;;;5059869;28;20662;-71
2023/09/11 12:12:15;;;;;;;12.93;9.43;;;;;;;;;;5077410;28;20184;-71
2023/09/11 12:14:44;;;;;;;9.97;8.97;;;;;;;;;;5043742;28;20284;-70
2023/09/11 12:17:13;;;;;;;10.33;9.27;;;;;;;;;;5059417;28;20219;-71
2023/09/11 12:19:41;;;;;;;10.57;8.93;;;;;;;;;;5026739;28;20223;-71
2023/09/11 12:22:09;;;;;;;11.80;10.07;;;;;;;;;;5042937;28;20194;-70
2023/09/11 12:24:36;;;;;;;10.63;8.97;;;;;;;;;;5075627;28;20196;-70
2023/09/11 12:27:04;;;;;;;10.80;9.57;;;;;;;;;;5059549;28;20292;-70
2023/09/11 12:29:34;;;;;;;10.77;9.77;;;;;;;;;;5060212;28;20246;-71
2023/09/11 12:40:16;;;;;;;13.87;10.27;;;;;;;;;;5077016;28;20194;-70
2023/09/11 12:46:44;;;;;;;10.93;9.30;;;;;;;;;;5076541;28;20245;-71
2023/09/11 12:49:12;;;;;;;10.10;9.03;;;;;;;;;;5058955;28;20196;-70
2023/09/11 12:55:38;;;;;;;11.47;9.87;;;;;;;;;;5076797;28;20153;-71
2023/09/11 12:58:05;;;;;;;12.07;9.57;;;;;;;;;;5077273;28;20191;-72
2023/09/11 13:00:33;;;;;;;10.67;9.60;;;;;;;;;;5076601;28;20233;-73
2023/09/11 13:03:01;;;;;;;11.07;9.50;;;;;;;;;;5061176;28;20201;-70
2023/09/11 13:05:29;;;;;;;10.67;9.33;;;;;;;;;;5042610;28;20213;-73
2023/09/11 13:07:57;;;;;;;10.07;9.07;;;;;;;;;;5042375;28;20323;-72
2023/09/11 13:10:24;;;;;;;10.07;9.07;;;;;;;;;;5050842;28;20187;-72
2023/09/11 13:12:52;;;;;;;12.67;8.30;;;;;;;;;;5059331;28;20275;-72
2023/09/11 13:15:20;;;;;;;10.93;8.30;;;;;;;;;;5059055;28;20530;-71
2023/09/11 13:17:47;;;;;;;11.80;9.17;;;;;;;;;;5058394;28;20209;-72
2023/09/11 13:20:14;;;;;;;8.57;7.67;;;;;;;;;;5043006;28;20200;-70
2023/09/11 13:22:42;;;;;;;9.40;8.50;;;;;;;;;;5042171;28;20266;-69
2023/09/11 13:25:11;;;;;;;9.13;7.77;;;;;;;;;;5058141;28;20205;-71
2023/09/11 13:27:42;;;;;;;8.60;7.60;;;;;;;;;;5058384;28;20187;-71
2023/09/11 13:30:09;;;;;;;10.00;7.87;;;;;;;;;;5076150;28;20636;-71
2023/09/11 13:32:40;;;;;;;10.20;8.13;;;;;;;;;;5058655;28;20212;-70
2023/09/11 13:35:32;;;;;;;8.37;7.20;;;;;;;;;;5076096;28;20646;-72
2023/09/11 13:38:02;;;;;;;9.60;7.20;;;;;;;;;;5048318;28;20195;-71
2023/09/11 13:40:29;;;;;;;16.17;8.17;;;;;;;;;;5058864;28;20184;-72
2023/09/11 13:42:56;;;;;;;8.53;7.00;;;;;;;;;;5058197;28;20260;-73
2023/09/11 13:45:24;;;;;;;8.60;7.50;;;;;;;;;;5076084;28;20222;-73
2023/09/11 13:47:52;;;;;;;9.00;8.07;;;;;;;;;;5058027;28;20188;-72
2023/09/11 13:50:20;;;;;;;8.73;7.77;;;;;;;;;;5041472;28;20187;-74
2023/09/11 13:52:47;;;;;;;11.40;8.00;;;;;;;;;;5042262;28;20186;-73
2023/09/11 13:55:14;;;;;;;9.23;7.80;;;;;;;;;;5058286;28;20626;-73
2023/09/11 13:57:41;;;;;;;9.30;7.83;;;;;;;;;;5041768;28;20213;-74
2023/09/11 14:00:10;;;;;;;9.23;8.33;;;;;;;;;;5041879;28;20190;-72
2023/09/11 14:02:38;;;;;;;9.60;8.70;;;;;;;;;;5074456;28;20201;-74
2023/09/11 14:05:06;;;;;;;9.50;8.60;;;;;;;;;;5040662;28;20202;-71
2023/09/11 14:07:33;;;;;;;9.33;8.33;;;;;;;;;;5075420;28;20210;-73
2023/09/11 14:10:01;;;;;;;10.30;8.97;;;;;;;;;;5042187;28;20194;-72
2023/09/11 14:12:29;;;;;;;9.80;8.80;;;;;;;;;;5041561;28;20571;-73
2023/09/11 14:14:56;;;;;;;16.23;9.23;;;;;;;;;;5075789;28;20202;-73
2023/09/11 14:17:23;;;;;;;12.07;8.23;;;;;;;;;;5074025;28;20247;-73
2023/09/11 14:19:51;;;;;;;10.10;8.97;;;;;;;;;;5057631;28;20182;-75
2023/09/11 14:22:18;;;;;;;10.87;8.53;;;;;;;;;;5057293;28;20193;-74
2023/09/11 14:24:44;;;;;;;10.27;9.17;;;;;;;;;;5056945;28;20197;-74
2023/09/11 14:27:12;;;;;;;9.10;8.20;;;;;;;;;;5040924;28;20222;-72
2023/09/11 14:29:40;;;;;;;9.70;8.70;;;;;;;;;;5057654;28;20636;-73
2023/09/11 14:32:07;;;;;;;11.03;8.97;;;;;;;;;;5057124;28;20717;-72
2023/09/11 14:34:34;;;;;;;9.63;8.67;;;;;;;;;;5057097;28;20186;-71
2023/09/11 14:37:03;;;;;;;12.40;9.40;;;;;;;;;;5040845;28;20190;-73
2023/09/11 14:39:49;;;;;;;9.20;8.30;;;;;;;;;;5060871;28;20170;-71
2023/09/11 14:42:33;;;;;;;11.00;9.27;;;;;;;;;;5057462;28;20172;-71
2023/09/11 14:45:01;;;;;;;12.20;9.17;;;;;;;;;;5074380;28;20255;-72
2023/09/11 14:47:29;;;;;;;11.27;8.70;;;;;;;;;;5057222;28;20231;-71
2023/09/11 14:49:57;;;;;;;12.10;9.00;;;;;;;;;;5056975;28;20698;-72
2023/09/11 14:52:26;;;;;;;11.30;9.03;;;;;;;;;;5057061;28;20185;-72
2023/09/11 14:54:53;;;;;;;12.60;9.07;;;;;;;;;;5040685;28;20571;-72
2023/09/11 14:57:21;;;;;;;9.53;8.33;;;;;;;;;;5074921;28;20273;-73
2023/09/11 14:59:48;;;;;;;10.73;9.10;;;;;;;;;;5073605;28;20213;-72
2023/09/11 15:02:16;;;;;;;10.57;9.47;;;;;;;;;;5056749;28;20232;-73
2023/09/11 15:04:44;;;;;;;10.30;9.30;;;;;;;;;;5057304;28;20190;-71
2023/09/11 15:07:18;;;;;;;12.17;10.90;;;;;;;;;;5033181;28;20242;-73
2023/09/11 15:09:50;;;;;;;13.13;10.30;;;;;;;;;;5020899;28;20195;-73
2023/09/11 15:12:17;;;;;;;10.70;9.60;;;;;;;;;;5036983;28;20167;-71
2023/09/11 15:14:44;;;;;;;12.37;10.30;;;;;;;;;;5054299;28;20264;-74
2023/09/11 15:17:12;;;;;;;11.90;10.20;;;;;;;;;;5020104;28;20601;-74
2023/09/11 15:19:40;;;;;;;16.03;10.50;;;;;;;;;;5020985;28;20222;-72
2023/09/11 15:22:08;;;;;;;14.73;10.87;;;;;;;;;;5037039;28;20182;-71
2023/09/11 15:24:43;;;;;;;12.63;10.77;;;;;;;;;;5036721;28;20641;-69
2023/09/11 15:27:14;;;;;;;12.93;10.60;;;;;;;;;;5036767;28;20671;-70
2023/09/11 15:33:37;;;;;;;12.63;11.40;;;;;;;;;;5054734;28;20613;-69
2023/09/11 15:40:16;;;;;;;12.63;11.43;;;;;;;;;;5053933;28;20146;-69
2023/09/11 15:46:44;;;;;;;16.67;12.30;;;;;;;;;;5054521;28;20196;-69
2023/09/11 15:49:15;;;;;;;13.70;11.30;;;;;;;;;;5036848;28;20206;-69
2023/09/11 15:55:49;;;;;;;15.43;11.87;;;;;;;;;;5054743;28;20185;-69
2023/09/11 15:58:21;;;;;;;12.67;11.47;;;;;;;;;;5035768;28;20549;-70
2023/09/11 16:00:52;;;;;;;14.47;12.57;;;;;;;;;;5054508;28;20607;-70
2023/09/11 16:03:24;;;;;;;14.23;11.97;;;;;;;;;;4996928;28;20190;-70
2023/09/11 16:05:52;;;;;;;13.70;11.67;;;;;;;;;;5003246;28;20217;-70
2023/09/11 16:08:19;;;;;;;12.80;11.57;;;;;;;;;;5052465;28;20648;-70
2023/09/11 16:10:53;;;;;;;14.90;13.20;;;;;;;;;;5039817;28;20191;-70
2023/09/11 16:13:28;;;;;;;21.37;13.60;;;;;;;;;;5032798;28;20202;-70
2023/09/11 16:15:56;;;;;;;15.23;13.63;;;;;;;;;;5055645;28;20206;-70
2023/09/11 16:18:27;;;;;;;14.37;12.37;;;;;;;;;;5040250;28;20282;-70
2023/09/11 16:20:59;;;;;;;14.87;12.40;;;;;;;;;;5055998;28;20187;-70
2023/09/11 16:27:19;;;;;;;15.73;11.23;;;;;;;;;;5076612;28;20252;-69
2023/09/11 16:29:48;;;;;;;13.80;11.07;;;;;;;;;;5077362;28;20721;-72
2023/09/11 16:32:17;;;;;;;13.40;12.00;;;;;;;;;;5060490;28;20197;-73
2023/09/11 16:34:45;;;;;;;15.33;12.73;;;;;;;;;;5058799;28;20197;-68
2023/09/11 16:37:20;;;;;;;15.63;12.23;;;;;;;;;;5058519;28;20216;-69
2023/09/11 16:43:46;;;;;;;14.57;12.43;;;;;;;;;;5076910;28;20172;-70
2023/09/11 16:46:13;;;;;;;14.80;13.30;;;;;;;;;;5076849;28;20227;-70
2023/09/11 16:48:40;;;;;;;12.83;11.47;;;;;;;;;;5076749;28;20178;-70
2023/09/11 16:51:08;;;;;;;13.30;12.00;;;;;;;;;;5059328;28;20690;-71
2023/09/11 16:53:35;;;;;;;23.80;15.13;;;;;;;;;;5057544;28;20214;-71
2023/09/11 16:56:04;;;;;;;14.60;11.97;;;;;;;;;;5042301;28;20292;-71
2023/09/11 16:58:32;;;;;;;21.60;13.63;;;;;;;;;;5042158;28;20197;-71
2023/09/11 17:01:05;;;;;;;16.87;11.83;;;;;;;;;;5075157;28;20235;-71
2023/09/11 17:03:32;;;;;;;13.93;10.50;;;;;;;;;;5059078;28;20190;-71
2023/09/11 17:06:00;;;;;;;21.67;12.27;;;;;;;;;;5075453;28;20198;-71
2023/09/11 17:08:27;;;;;;;15.17;11.97;;;;;;;;;;5058651;28;20226;-71
2023/09/11 17:10:56;;;;;;;15.07;11.57;;;;;;;;;;5074881;28;20227;-71
2023/09/11 17:13:23;;;;;;;16.60;10.90;;;;;;;;;;5075153;28;20206;-71
2023/09/11 17:15:50;;;;;;;19.53;11.77;;;;;;;;;;5058485;28;20214;-71
2023/09/11 17:18:18;;;;;;;15.67;10.90;;;;;;;;;;5058994;28;20182;-71
2023/09/11 17:20:46;;;;;;;20.27;11.77;;;;;;;;;;5058292;28;20182;-71
2023/09/11 17:23:13;;;;;;;17.60;11.97;;;;;;;;;;5074788;28;20200;-71
2023/09/11 17:25:41;;;;;;;21.67;12.57;;;;;;;;;;5075124;28;20716;-70
2023/09/11 17:28:10;;;;;;;20.23;13.37;;;;;;;;;;5075312;28;20190;-71
2023/09/11 17:30:37;;;;;;;30.97;14.37;;;;;;;;;;5058183;28;20182;-71
2023/09/11 17:33:05;;;;;;;24.40;14.93;;;;;;;;;;5058143;28;20571;-71
2023/09/11 17:35:37;;;;;;;28.90;14.53;;;;;;;;;;5042433;28;20790;-73
2023/09/11 17:38:04;;;;;;;41.40;15.50;;;;;;;;;;5058413;28;20178;-73
2023/09/11 17:44:35;;;;;;;31.40;16.97;;;;;;;;;;5076273;28;20149;-71
2023/09/11 17:51:01;;;;;;;33.00;17.27;;;;;;;;;;5075756;28;20229;-71
2023/09/11 17:53:30;;;;;;;34.50;16.30;;;;;;;;;;5058102;28;20178;-72
2023/09/11 17:59:57;;;;;;;47.57;17.80;;;;;;;;;;5075495;28;20184;-72
2023/09/11 18:06:22;;;;;;;67.33;17.30;;;;;;;;;;5074919;28;20185;-72
2023/09/11 18:08:49;;;;;;;60.53;17.93;;;;;;;;;;5075660;28;20175;-71
2023/09/11 18:15:11;;;;;;;39.43;17.23;;;;;;;;;;5074867;28;20181;-73
2023/09/11 18:21:38;;;;;;;68.70;18.73;;;;;;;;;;5075097;28;20192;-72
2023/09/11 18:24:06;;;;;;;60.00;19.17;;;;;;;;;;5057036;28;20194;-71
2023/09/11 18:30:33;;;;;;;58.70;17.97;;;;;;;;;;5074902;28;20654;-73
2023/09/11 18:33:00;;;;;;;57.90;17.00;;;;;;;;;;5057100;28;20712;-71
2023/09/11 18:35:28;;;;;;;54.73;17.13;;;;;;;;;;5074987;28;20562;-72
2023/09/11 18:37:56;;;;;;;54.20;17.07;;;;;;;;;;5057534;28;20193;-71
2023/09/11 18:44:24;;;;;;;34.77;16.23;;;;;;;;;;5074519;28;20160;-71
2023/09/11 18:50:51;;;;;;;30.97;15.90;;;;;;;;;;5074574;28;20556;-70
2023/09/11 18:53:19;;;;;;;23.87;15.60;;;;;;;;;;5056860;28;20226;-74
2023/09/11 18:55:47;;;;;;;25.93;14.43;;;;;;;;;;5044942;28;20216;-71
2023/09/11 19:02:14;;;;;;;25.67;14.10;;;;;;;;;;5054364;28;20221;-71
2023/09/11 19:04:42;;;;;;;27.13;15.10;;;;;;;;;;5036343;28;20190;-71
2023/09/11 19:07:27;;;;;;;20.87;13.53;;;;;;;;;;5031226;28;20269;-71
2023/09/11 19:09:54;;;;;;;18.40;13.90;;;;;;;;;;5053533;28;20187;-72
2023/09/11 19:12:21;;;;;;;19.93;13.83;;;;;;;;;;5036321;28;20240;-71
2023/09/11 19:18:58;;;;;;;21.60;13.33;;;;;;;;;;5049463;28;20220;-70
2023/09/11 19:21:28;;;;;;;17.20;13.83;;;;;;;;;;5019514;28;20240;-72
2023/09/11 19:27:51;;;;;;;19.73;15.43;;;;;;;;;;5052833;28;20240;-71
2023/09/11 19:30:18;;;;;;;18.80;15.70;;;;;;;;;;5035179;28;20183;-71
2023/09/11 19:32:45;;;;;;;20.33;15.83;;;;;;;;;;5053093;28;20187;-70
2023/09/11 19:35:12;;;;;;;20.97;14.90;;;;;;;;;;5035152;28;20618;-70
2023/09/11 19:37:38;;;;;;;20.47;15.13;;;;;;;;;;5052873;28;20240;-70
2023/09/11 19:40:06;;;;;;;22.87;16.07;;;;;;;;;;5052514;28;20189;-70
2023/09/11 19:42:32;;;;;;;74.67;25.30;;;;;;;;;;5066940;28;20663;-70
2023/09/11 19:48:52;;;;;;;52.00;22.03;;;;;;;;;;5072493;28;20158;-70
2023/09/11 19:51:20;;;;;;;53.47;20.67;;;;;;;;;;5072609;28;20255;-70
2023/09/11 19:53:47;;;;;;;45.13;19.57;;;;;;;;;;5054949;28;20186;-70
2023/09/11 19:56:14;;;;;;;37.07;18.83;;;;;;;;;;5073373;28;20231;-70
2023/09/11 19:58:41;;;;;;;40.57;19.80;;;;;;;;;;5071555;28;20243;-71
2023/09/11 20:01:08;;;;;;;34.17;23.07;;;;;;;;;;5051826;28;20716;-71
2023/09/11 20:03:35;;;;;;;37.93;25.60;;;;;;;;;;5055854;28;20187;-70
2023/09/11 20:06:04;;;;;;;36.23;26.17;;;;;;;;;;5056505;28;20198;-71
2023/09/11 20:08:31;;;;;;;30.80;21.20;;;;;;;;;;5006497;28;1460347;-71
2023/09/11 20:10:59;;;;;;;32.80;21.97;;;;;;;;;;5023467;28;20191;-70
2023/09/11 20:17:19;;;;;;;34.30;22.83;;;;;;;;;;5057077;28;20162;-71
2023/09/11 20:23:39;;;;;;;27.70;20.30;;;;;;;;;;5056938;28;20227;-71
2023/09/11 20:26:06;;;;;;;30.73;20.77;;;;;;;;;;5056974;28;20192;-70
2023/09/11 20:28:34;;;;;;;24.80;20.03;;;;;;;;;;5056890;28;20302;-70